createdAt,value
2022-08-07T00:00:28.222Z,96942.87
2022-08-07T00:03:09.278Z,96944.09
2022-08-07T00:05:38.061Z,96950.17
2022-08-07T00:08:07.822Z,96952.91
2022-08-07T00:10:47.895Z,96957.73
2022-08-07T00:13:26.678Z,96957.95
2022-08-07T00:15:55.595Z,96956.64
2022-08-07T00:18:27.028Z,96954.09
2022-08-07T00:21:01.904Z,96954.52
2022-08-07T00:23:33.549Z,96956.52
2022-08-07T00:26:12.820Z,96960.69
2022-08-07T00:28:55.347Z,96958.66
2022-08-07T00:31:37.167Z,96959.73
2022-08-07T00:34:08.797Z,96960.30
2022-08-07T00:36:42.911Z,96961.61
2022-08-07T00:39:16.472Z,96963.68
2022-08-07T00:42:01.742Z,96964.50
2022-08-07T00:44:34.902Z,96963.89
2022-08-07T00:47:16.013Z,96964.50
2022-08-07T00:50:19.248Z,96965.58
2022-08-07T00:52:47.469Z,96962.80
2022-08-07T00:55:17.438Z,96962.73
2022-08-07T00:57:55.534Z,96961.03
2022-08-07T01:00:25.374Z,96966.39
2022-08-07T01:02:54.778Z,96960.77
2022-08-07T01:05:24.533Z,96959.85
2022-08-07T01:07:53.009Z,96959.80
2022-08-07T01:10:23.713Z,96958.75
2022-08-07T01:12:54.686Z,96958.59
2022-08-07T01:15:35.664Z,96959.27
2022-08-07T01:18:16.800Z,96957.70
2022-08-07T01:20:57.444Z,96957.70
2022-08-07T01:23:38.586Z,96957.70
2022-08-07T01:26:13.646Z,96956.23
2022-08-07T01:28:51.838Z,96954.74
2022-08-07T01:31:42.811Z,96946.83
2022-08-07T01:34:18.885Z,96942.39
2022-08-07T01:36:52.924Z,96942.77
2022-08-07T01:39:40.342Z,96944.41
2022-08-07T01:42:38.598Z,96944.16
2022-08-07T01:45:17.830Z,96943.94
2022-08-07T01:48:20.695Z,96948.58
2022-08-07T01:50:43.030Z,96945.42
2022-08-07T01:53:21.094Z,96942.20
2022-08-07T01:56:01.848Z,96944.05
2022-08-07T01:58:41.029Z,96942.84
2022-08-07T02:01:25.318Z,96947.11
2022-08-07T02:04:16.200Z,96945.39
2022-08-07T02:06:48.895Z,96947.30
2022-08-07T02:09:33.904Z,96944.74
2022-08-07T02:12:29.073Z,96943.77
2022-08-07T02:15:01.603Z,96941.00
2022-08-07T02:17:49.555Z,96941.83
2022-08-07T02:20:23.837Z,96938.16
2022-08-07T02:23:00.118Z,96942.48
2022-08-07T02:25:32.223Z,96941.45
2022-08-07T02:28:24.756Z,96943.29
2022-08-07T02:30:56.334Z,96941.99
2022-08-07T02:33:42.000Z,96942.32
2022-08-07T02:36:30.487Z,96944.86
2022-08-07T02:39:15.980Z,96948.27
2022-08-07T02:41:54.418Z,96952.27
2022-08-07T02:44:26.877Z,96952.06
2022-08-07T02:47:00.778Z,96954.31
2022-08-07T02:49:57.433Z,96955.27
2022-08-07T02:52:30.968Z,96954.91
2022-08-07T02:55:28.287Z,96955.05
2022-08-07T02:58:12.009Z,96957.48
2022-08-07T03:00:46.989Z,96960.19
2022-08-07T03:03:21.160Z,96957.27
2022-08-07T03:05:53.818Z,96957.09
2022-08-07T03:08:26.912Z,96957.23
2022-08-07T03:11:00.260Z,96955.77
2022-08-07T03:13:39.146Z,96958.41
2022-08-07T03:16:22.855Z,96955.65
2022-08-07T03:18:57.527Z,96957.60
2022-08-07T03:21:26.855Z,96963.09
2022-08-07T03:24:19.990Z,96964.90
2022-08-07T03:26:58.624Z,96965.71
2022-08-07T03:29:46.190Z,96967.06
2022-08-07T03:32:49.098Z,96964.80
2022-08-07T03:35:43.979Z,96962.99
2022-08-07T03:38:21.292Z,96966.89
2022-08-07T03:41:01.596Z,96968.52
2022-08-07T03:43:33.547Z,96965.98
2022-08-07T03:46:18.255Z,96969.86
2022-08-07T03:49:02.502Z,96973.84
2022-08-07T03:51:47.640Z,96968.68
2022-08-07T03:54:35.289Z,96966.77
2022-08-07T03:57:08.119Z,96969.30
2022-08-07T03:59:37.792Z,96970.50
2022-08-07T04:02:15.393Z,96975.10
2022-08-07T04:04:45.193Z,96979.09
2022-08-07T04:07:17.730Z,96976.98
2022-08-07T04:09:53.083Z,96979.51
2022-08-07T04:12:28.769Z,96979.44
2022-08-07T04:15:00.280Z,96978.20
2022-08-07T04:18:31.097Z,96979.60
2022-08-07T04:20:19.752Z,96978.36
2022-08-07T04:22:53.200Z,96977.88
2022-08-07T04:25:23.969Z,96972.48
2022-08-07T04:27:59.389Z,96972.61
2022-08-07T04:30:35.571Z,96975.20
2022-08-07T04:33:18.434Z,96977.89
2022-08-07T04:35:51.048Z,96976.88
2022-08-07T04:38:22.224Z,96979.96
2022-08-07T04:40:52.722Z,96980.60
2022-08-07T04:44:12.889Z,96986.02
2022-08-07T04:47:04.210Z,96989.13
2022-08-07T04:50:04.240Z,96990.75
2022-08-07T04:52:52.427Z,96990.38
2022-08-07T04:58:14.632Z,96996.36
2022-08-07T04:59:18.302Z,96998.88
2022-08-07T05:02:06.478Z,97001.97
2022-08-07T05:05:52.163Z,97007.71
2022-08-07T05:08:45.855Z,97005.53
2022-08-07T05:11:24.554Z,97007.73
2022-08-07T05:14:55.794Z,97009.10
2022-08-07T05:16:54.178Z,97009.38
2022-08-07T05:19:44.106Z,97011.11
2022-08-07T05:22:26.804Z,97007.02
2022-08-07T05:25:00.529Z,97006.26
2022-08-07T05:28:03.163Z,97005.33
2022-08-07T05:30:29.988Z,97006.38
2022-08-07T05:33:02.345Z,97009.16
2022-08-07T05:35:42.263Z,97011.63
2022-08-07T05:38:12.778Z,97015.36
2022-08-07T05:41:21.733Z,97017.25
2022-08-07T05:44:11.648Z,97016.77
2022-08-07T05:46:43.741Z,97014.32
2022-08-07T05:49:14.267Z,97016.32
2022-08-07T05:51:47.202Z,97017.59
2022-08-07T05:54:31.248Z,97021.80
2022-08-07T05:57:09.410Z,97019.02
2022-08-07T05:59:57.199Z,97023.13
2022-08-07T06:02:31.427Z,97021.50
2022-08-07T06:05:15.778Z,97021.34
2022-08-07T06:08:05.361Z,97026.13
2022-08-07T06:10:38.830Z,97024.04
2022-08-07T06:13:13.323Z,97023.04
2022-08-07T06:15:45.736Z,97024.64
2022-08-07T06:18:22.367Z,97023.98
2022-08-07T06:22:12.512Z,97023.08
2022-08-07T06:24:37.886Z,97020.70
2022-08-07T06:26:33.988Z,97015.77
2022-08-07T06:29:04.186Z,97021.09
2022-08-07T06:31:38.503Z,97024.89
2022-08-07T06:34:19.831Z,97028.23
2022-08-07T06:36:51.889Z,97032.13
2022-08-07T06:40:13.719Z,97037.24
2022-08-07T06:42:19.549Z,97045.39
2022-08-07T06:45:19.501Z,97044.48
2022-08-07T06:47:58.798Z,97040.45
2022-08-07T06:50:43.387Z,97042.33
2022-08-07T06:55:28.865Z,97045.27
2022-08-07T06:56:15.490Z,97041.50
2022-08-07T07:00:13.246Z,97034.07
2022-08-07T07:01:41.985Z,97033.11
2022-08-07T07:04:27.990Z,97032.36
2022-08-07T07:07:10.694Z,97034.08
2022-08-07T07:09:49.175Z,97032.13
2022-08-07T07:12:41.823Z,97032.15
2022-08-07T07:15:24.023Z,97035.23
2022-08-07T07:18:47.022Z,97037.38
2022-08-07T07:21:19.813Z,97037.39
2022-08-07T07:24:08.192Z,97027.63
2022-08-07T07:26:41.218Z,97015.79
2022-08-07T07:29:56.342Z,97013.36
2022-08-07T07:32:16.852Z,97015.20
2022-08-07T07:34:48.616Z,97011.84
2022-08-07T07:37:45.216Z,97013.67
2022-08-07T07:40:16.450Z,97008.06
2022-08-07T07:42:47.292Z,97006.88
2022-08-07T07:46:35.490Z,97009.14
2022-08-07T07:48:34.779Z,97005.71
2022-08-07T07:51:07.522Z,97007.97
2022-08-07T07:53:51.238Z,97003.08
2022-08-07T07:56:30.491Z,97001.85
2022-08-07T07:59:01.891Z,97001.05
2022-08-07T08:02:02.378Z,97002.88
2022-08-07T08:04:27.512Z,97003.23
2022-08-07T08:06:56.484Z,97002.10
2022-08-07T08:09:31.896Z,97001.54
2022-08-07T08:12:51.264Z,97001.14
2022-08-07T08:15:09.929Z,97001.20
2022-08-07T08:17:58.088Z,96998.27
2022-08-07T08:20:32.061Z,97001.50
2022-08-07T08:23:21.088Z,97001.74
2022-08-07T08:26:19.769Z,97003.29
2022-08-07T08:28:51.990Z,97009.19
2022-08-07T08:31:59.193Z,97002.41
2022-08-07T08:34:26.994Z,97003.45
2022-08-07T08:36:58.442Z,97006.38
2022-08-07T08:39:39.867Z,97002.48
2022-08-07T08:42:27.802Z,97004.75
2022-08-07T08:45:04.192Z,97005.36
2022-08-07T08:48:02.582Z,97007.04
2022-08-07T08:50:44.734Z,97010.43
2022-08-07T08:53:29.393Z,97001.10
2022-08-07T08:56:03.110Z,97005.29
2022-08-07T08:58:57.933Z,97009.04
2022-08-07T09:01:58.551Z,97005.34
2022-08-07T09:05:06.195Z,97005.24
2022-08-07T09:07:46.203Z,97007.15
2022-08-07T09:10:38.009Z,96998.65
2022-08-07T09:13:37.557Z,97002.67
2022-08-07T09:16:22.697Z,97008.91
2022-08-07T09:18:58.601Z,97004.96
2022-08-07T09:22:09.683Z,97004.14
2022-08-07T09:25:00.365Z,97001.95
2022-08-07T09:28:00.436Z,96999.04
2022-08-07T09:30:37.478Z,96992.58
2022-08-07T09:33:40.706Z,96993.66
2022-08-07T09:36:28.581Z,96992.52
2022-08-07T09:39:55.207Z,96992.94
2022-08-07T09:42:41.745Z,96994.11
2022-08-07T09:47:52.709Z,96990.88
2022-08-07T09:48:12.255Z,96989.52
2022-08-07T09:52:10.926Z,96987.44
2022-08-07T09:54:27.254Z,96985.24
2022-08-07T09:57:14.515Z,96982.19
2022-08-07T10:00:00.262Z,96981.99
2022-08-07T10:03:08.511Z,96983.27
2022-08-07T10:06:25.714Z,96982.94
2022-08-07T10:09:05.436Z,96984.73
2022-08-07T10:12:11.787Z,96981.94
2022-08-07T10:15:03.997Z,96980.59
2022-08-07T10:18:01.403Z,96976.89
2022-08-07T10:20:50.357Z,96977.04
2022-08-07T10:24:05.725Z,96972.48
2022-08-07T10:27:12.646Z,96972.01
2022-08-07T10:29:53.275Z,96966.15
2022-08-07T10:32:51.161Z,96966.27
2022-08-07T10:35:55.507Z,96967.80
2022-08-07T10:38:36.088Z,96960.39
2022-08-07T10:41:51.862Z,96962.06
2022-08-07T10:44:45.494Z,96958.20
2022-08-07T10:47:53.374Z,96963.16
2022-08-07T10:50:29.737Z,96957.39
2022-08-07T10:53:08.921Z,96950.67
2022-08-07T10:55:50.595Z,96950.69
2022-08-07T10:58:49.696Z,96948.83
2022-08-07T11:01:35.678Z,96945.65
2022-08-07T11:04:37.802Z,96944.83
2022-08-07T11:07:56.092Z,96942.55
2022-08-07T11:10:21.674Z,96937.59
2022-08-07T11:14:41.966Z,96936.55
2022-08-07T11:16:10.461Z,96931.84
2022-08-07T11:18:38.557Z,96928.43
2022-08-07T11:21:32.258Z,96926.16
2022-08-07T11:24:39.495Z,96923.36
2022-08-07T11:28:00.924Z,96924.86
2022-08-07T11:30:19.293Z,96924.27
2022-08-07T11:33:59.548Z,96924.60
2022-08-07T11:36:41.296Z,96919.23
2022-08-07T11:40:00.631Z,96917.11
2022-08-07T11:42:29.386Z,96915.10
2022-08-07T11:45:35.495Z,96911.54
2022-08-07T11:48:31.654Z,96908.60
2022-08-07T11:51:35.069Z,96905.01
2022-08-07T11:54:54.629Z,96899.25
2022-08-07T11:57:58.185Z,96900.85
2022-08-07T12:00:20.052Z,96903.15
2022-08-07T12:03:41.456Z,96901.13
2022-08-07T12:06:37.532Z,96892.81
2022-08-07T12:09:47.108Z,96885.54
2022-08-07T12:12:25.413Z,96884.50
2022-08-07T12:15:17.333Z,96881.74
2022-08-07T12:18:16.172Z,96885.31
2022-08-07T12:21:14.927Z,96883.90
2022-08-07T12:24:05.419Z,96883.27
2022-08-07T12:26:49.432Z,96882.08
2022-08-07T12:29:38.955Z,96883.98
2022-08-07T12:32:18.381Z,96879.86
2022-08-07T12:34:53.429Z,96877.69
2022-08-07T12:37:28.358Z,96870.61
2022-08-07T12:40:46.709Z,96862.61
2022-08-07T12:44:03.674Z,96863.13
2022-08-07T12:46:26.482Z,96864.30
2022-08-07T12:49:25.340Z,96862.42
2022-08-07T12:52:18.108Z,96867.15
2022-08-07T12:55:05.469Z,96866.67
2022-08-07T12:58:00.335Z,96864.86
2022-08-07T13:00:41.625Z,96862.08
2022-08-07T13:03:53.526Z,96862.94
2022-08-07T13:07:01.169Z,96866.50
2022-08-07T13:10:19.561Z,96869.30
2022-08-07T13:12:59.827Z,96867.05
2022-08-07T13:16:06.711Z,96863.73
2022-08-07T13:19:00.975Z,96862.65
2022-08-07T13:21:54.315Z,96858.66
2022-08-07T13:24:54.270Z,96857.52
2022-08-07T13:28:12.514Z,96860.17
2022-08-07T13:30:41.358Z,96851.50
2022-08-07T13:34:31.828Z,96846.80
2022-08-07T13:36:08.549Z,96841.06
2022-08-07T13:39:02.827Z,96839.52
2022-08-07T13:41:42.317Z,96840.86
2022-08-07T13:44:12.952Z,96835.73
2022-08-07T13:46:49.706Z,96834.84
2022-08-07T13:50:32.844Z,96834.85
2022-08-07T13:52:31.743Z,96831.66
2022-08-07T13:54:58.208Z,96825.54
2022-08-07T13:57:37.639Z,96818.79
2022-08-07T14:00:13.352Z,96823.21
2022-08-07T14:02:58.713Z,96819.46
2022-08-07T14:05:37.335Z,96817.16
2022-08-07T14:08:09.009Z,96813.28
2022-08-07T14:10:41.976Z,96815.98
2022-08-07T14:13:18.685Z,96810.55
2022-08-07T14:15:56.907Z,96812.98
2022-08-07T14:18:57.367Z,96815.13
2022-08-07T14:22:04.161Z,96809.63
2022-08-07T14:24:49.632Z,96802.77
2022-08-07T14:28:11.801Z,96799.76
2022-08-07T14:30:32.745Z,96798.23
2022-08-07T14:33:04.733Z,96793.39
2022-08-07T14:35:44.746Z,96792.26
2022-08-07T14:38:26.665Z,96794.59
2022-08-07T14:41:04.318Z,96791.39
2022-08-07T14:46:32.050Z,96789.45
2022-08-07T14:52:04.989Z,96788.79
2022-08-07T14:54:41.939Z,96787.20
2022-08-07T14:57:19.259Z,96784.07
2022-08-07T15:00:05.465Z,96781.05
2022-08-07T15:02:39.253Z,96778.48
2022-08-07T15:05:20.269Z,96776.88
2022-08-07T15:07:52.789Z,96775.04
2022-08-07T15:10:29.919Z,96774.52
2022-08-07T15:13:11.383Z,96774.82
2022-08-07T15:15:52.422Z,96770.23
2022-08-07T15:25:15.718Z,96763.80
2022-08-07T15:27:26.020Z,96767.60
2022-08-07T15:30:14.633Z,96764.34
2022-08-07T15:32:51.133Z,96764.52
2022-08-07T15:36:01.407Z,96764.90
2022-08-07T15:44:15.305Z,96760.31
2022-08-07T15:46:49.992Z,96759.98
2022-08-07T15:50:06.077Z,96757.23
2022-08-07T15:52:30.673Z,96754.13
2022-08-07T15:55:03.839Z,96749.60
2022-08-07T15:57:47.785Z,96748.50
2022-08-07T16:00:31.237Z,96744.02
2022-08-07T16:03:21.835Z,96745.86
2022-08-07T16:05:59.191Z,96745.31
2022-08-07T16:08:37.881Z,96743.66
2022-08-07T16:11:43.557Z,96739.23
2022-08-07T16:14:17.204Z,96742.20
2022-08-07T16:17:02.796Z,96738.81
2022-08-07T16:19:59.256Z,96738.71
2022-08-07T16:22:55.329Z,96744.76
2022-08-07T16:25:27.724Z,96740.85
2022-08-07T16:29:18.359Z,96741.59
2022-08-07T16:31:50.060Z,96744.58
2022-08-07T16:34:48.770Z,96746.31
2022-08-07T16:38:06.586Z,96745.84
2022-08-07T16:40:31.904Z,96746.43
2022-08-07T16:44:03.812Z,96744.46
2022-08-07T16:47:04.768Z,96745.42
2022-08-07T16:50:27.789Z,96746.58
2022-08-07T16:53:57.240Z,96748.03
2022-08-07T16:56:17.066Z,96748.05
2022-08-07T16:59:14.871Z,96749.50
2022-08-07T17:02:02.885Z,96750.14
2022-08-07T17:04:37.030Z,96753.70
2022-08-07T17:07:55.088Z,96747.86
2022-08-07T17:10:33.062Z,96746.97
2022-08-07T17:13:24.727Z,96749.80
2022-08-07T17:16:25.050Z,96753.95
2022-08-07T17:19:17.387Z,96750.20
2022-08-07T17:22:42.619Z,96748.58
2022-08-07T17:25:19.268Z,96748.54
2022-08-07T17:27:57.738Z,96751.45
2022-08-07T17:30:31.488Z,96750.88
2022-08-07T17:34:08.989Z,96754.45
2022-08-07T17:36:20.378Z,96754.15
2022-08-07T17:39:57.951Z,96751.13
2022-08-07T17:42:58.216Z,96750.70
2022-08-07T17:45:35.513Z,96749.77
2022-08-07T17:48:12.895Z,96752.41
2022-08-07T17:51:02.347Z,96757.61
2022-08-07T17:54:00.824Z,96761.90
2022-08-07T17:56:30.983Z,96767.20
2022-08-07T17:59:16.839Z,96766.80
2022-08-07T18:02:01.593Z,96765.02
2022-08-07T18:04:35.200Z,96768.98
2022-08-07T18:07:22.556Z,96772.16
2022-08-07T18:10:32.099Z,96771.91
2022-08-07T18:13:00.894Z,96776.96
2022-08-07T18:15:40.631Z,96777.64
2022-08-07T18:18:45.130Z,96780.75
2022-08-07T18:21:41.976Z,96780.13
2022-08-07T18:24:43.133Z,96782.64
2022-08-07T18:27:44.680Z,96785.38
2022-08-07T18:30:53.529Z,96789.65
2022-08-07T18:33:54.853Z,96791.85
2022-08-07T18:36:33.746Z,96792.70
2022-08-07T18:40:05.575Z,96794.08
2022-08-07T18:42:16.336Z,96793.55
2022-08-07T18:45:40.112Z,96796.65
2022-08-07T18:49:03.739Z,96795.23
2022-08-07T18:51:14.982Z,96798.30
2022-08-07T18:53:54.255Z,96800.86
2022-08-07T18:56:40.330Z,96802.88
2022-08-07T18:59:47.232Z,96802.92
2022-08-07T19:02:42.474Z,96803.17
2022-08-07T19:06:03.267Z,96802.92
2022-08-07T19:08:21.721Z,96802.61
2022-08-07T19:11:35.232Z,96804.98
2022-08-07T19:14:20.225Z,96807.19
2022-08-07T19:17:06.660Z,96806.52
2022-08-07T19:19:50.967Z,96807.66
2022-08-07T19:22:31.259Z,96808.69
2022-08-07T19:25:06.376Z,96805.19
2022-08-07T19:28:58.188Z,96805.98
2022-08-07T19:31:05.815Z,96808.33
2022-08-07T19:33:33.363Z,96807.92
2022-08-07T19:36:05.757Z,96811.17
2022-08-07T19:38:53.618Z,96811.89
2022-08-07T19:41:39.143Z,96812.51
2022-08-07T19:44:21.419Z,96814.76
2022-08-07T19:46:57.964Z,96811.03
2022-08-07T19:49:57.073Z,96811.27
2022-08-07T19:52:22.500Z,96815.36
2022-08-07T19:54:56.423Z,96823.84
2022-08-07T19:58:00.786Z,96827.93
2022-08-07T20:00:28.261Z,96829.68
2022-08-07T20:03:04.313Z,96830.73
2022-08-07T20:06:00.019Z,96829.75
2022-08-07T20:08:30.816Z,96830.00
2022-08-07T20:11:10.054Z,96828.59
2022-08-07T20:13:45.560Z,96827.96
2022-08-07T20:16:34.774Z,96829.18
2022-08-07T20:19:10.964Z,96835.22
2022-08-07T20:21:47.545Z,96833.66
2022-08-07T20:24:22.062Z,96834.41
2022-08-07T20:26:54.461Z,96837.23
2022-08-07T20:29:48.003Z,96839.40
2022-08-07T20:32:25.470Z,96838.33
2022-08-07T20:34:58.587Z,96841.72
2022-08-07T20:37:33.620Z,96847.14
2022-08-07T20:40:32.926Z,96845.34
2022-08-07T20:43:00.966Z,96850.88
2022-08-07T20:46:25.746Z,96850.72
2022-08-07T20:48:29.727Z,96847.41
2022-08-07T20:51:09.284Z,96848.38
2022-08-07T20:54:04.420Z,96847.57
2022-08-07T20:56:30.677Z,96852.35
2022-08-07T20:59:05.281Z,96851.63
2022-08-07T21:01:45.658Z,96853.27
2022-08-07T21:04:27.921Z,96858.88
2022-08-07T21:07:04.522Z,96857.79
2022-08-07T21:09:53.290Z,96857.23
2022-08-07T21:12:31.964Z,96860.61
2022-08-07T21:15:05.594Z,96857.85
2022-08-07T21:18:02.877Z,96852.03
2022-08-07T21:20:33.299Z,96855.85
2022-08-07T21:23:09.028Z,96853.36
2022-08-07T21:25:56.298Z,96848.27
2022-08-07T21:28:49.858Z,96847.08
2022-08-07T21:31:50.140Z,96854.61
2022-08-07T21:34:46.316Z,96855.05
2022-08-07T21:37:57.871Z,96855.64
2022-08-07T21:40:38.167Z,96856.77
2022-08-07T21:43:56.380Z,96855.87
2022-08-07T21:46:34.976Z,96854.48
2022-08-07T21:49:21.632Z,96851.55
2022-08-07T21:52:09.046Z,96854.48
2022-08-07T21:55:10.512Z,96856.88
2022-08-07T21:57:52.085Z,96852.02
2022-08-07T22:00:25.107Z,96851.61
2022-08-07T22:03:30.914Z,96852.08
2022-08-07T22:06:06.718Z,96852.34
2022-08-07T22:08:42.510Z,96850.65
2022-08-07T22:11:17.676Z,96850.92
2022-08-07T22:13:55.421Z,96853.01
2022-08-07T22:16:44.940Z,96855.76
2022-08-07T22:19:29.881Z,96849.64
2022-08-07T22:22:27.536Z,96850.88
2022-08-07T22:25:11.277Z,96853.64
2022-08-07T22:28:30.241Z,96850.91
2022-08-07T22:31:05.578Z,96850.48
2022-08-07T22:33:57.181Z,96849.86
2022-08-07T22:36:46.635Z,96849.92
2022-08-07T22:40:08.493Z,96847.02
2022-08-07T22:42:40.328Z,96847.44
2022-08-07T22:46:04.779Z,96845.23
2022-08-07T22:48:54.647Z,96846.26
2022-08-07T22:51:22.317Z,96844.73
2022-08-07T22:54:09.422Z,96847.20
2022-08-07T22:56:52.765Z,96844.91
2022-08-07T22:59:32.666Z,96841.06
2022-08-07T23:02:39.391Z,96840.58
2022-08-07T23:06:09.991Z,96839.91
2022-08-07T23:08:30.231Z,96840.77
2022-08-07T23:11:29.416Z,96839.61
2022-08-07T23:14:56.236Z,96839.21
2022-08-07T23:17:55.696Z,96841.49
2022-08-07T23:20:53.142Z,96844.61
2022-08-07T23:24:05.259Z,96839.60
2022-08-07T23:26:30.106Z,96833.80
2022-08-07T23:29:01.861Z,96829.14
2022-08-07T23:32:50.163Z,96827.27
2022-08-07T23:34:37.578Z,96827.64
2022-08-07T23:37:32.388Z,96821.82
2022-08-07T23:40:12.923Z,96820.48
2022-08-07T23:43:16.732Z,96820.61
2022-08-07T23:46:12.355Z,96823.60
2022-08-07T23:49:04.517Z,96825.06
2022-08-07T23:53:02.157Z,96829.23
2022-08-07T23:54:46.335Z,96828.48
2022-08-07T23:57:28.213Z,96827.42
